Austin, Missouri
Current Conditions -  °F | °C
As of 1:53 PM on Thursday 29 Jan 2015 (Local Time) from KOJC Reporting Station
Overcast Overcast  
Wind Chill: 33°   Ceiling: 3100
Heat Index: 41°   Visibility: 10mi
Dew Point: 27°   Wind: 16mph
Humidity: 57%   Direction: 340°NNW
Pressure: 30.36"   Gusts: 25mph
Location:  38.5148°N, 94.3768°W
Report Text: KOJC 291953Z 34014G22KT 10SM OVC031 05/M03 A3036 RMK AO2 PK WND 32026/1903 SLP283 T00501028
Loading
Personal Weather Stations






























Interactive Weather Map New forecast layout! Learn more

10-Day Weather Forecast

Advertisements
Track Severe Weather on mobile